sensor_id;sensor_type;location;lat;lon;timestamp;P1;durP1;ratioP1;P2;durP2;ratioP2
40252;SDS011;25972;51.854;4.534;2023-11-21T00:00:07;23.85;;;20.88;;
40252;SDS011;25972;51.854;4.534;2023-11-21T00:02:38;24.92;;;20.50;;
40252;SDS011;25972;51.854;4.534;2023-11-21T00:05:08;22.50;;;20.15;;
40252;SDS011;25972;51.854;4.534;2023-11-21T00:07:35;26.05;;;20.70;;
40252;SDS011;25972;51.854;4.534;2023-11-21T00:10:01;23.25;;;19.90;;
40252;SDS011;25972;51.854;4.534;2023-11-21T00:12:28;24.73;;;20.40;;
40252;SDS011;25972;51.854;4.534;2023-11-21T00:14:54;23.80;;;20.05;;
40252;SDS011;25972;51.854;4.534;2023-11-21T00:17:20;26.13;;;19.95;;
40252;SDS011;25972;51.854;4.534;2023-11-21T00:19:47;23.23;;;19.98;;
40252;SDS011;25972;51.854;4.534;2023-11-21T00:22:14;25.83;;;20.55;;
40252;SDS011;25972;51.854;4.534;2023-11-21T00:24:41;22.17;;;19.98;;
40252;SDS011;25972;51.854;4.534;2023-11-21T00:27:08;25.02;;;20.67;;
40252;SDS011;25972;51.854;4.534;2023-11-21T00:29:34;30.48;;;20.58;;
40252;SDS011;25972;51.854;4.534;2023-11-21T00:32:01;27.90;;;20.30;;
40252;SDS011;25972;51.854;4.534;2023-11-21T00:34:27;24.42;;;20.42;;
40252;SDS011;25972;51.854;4.534;2023-11-21T00:36:55;23.27;;;20.13;;
40252;SDS011;25972;51.854;4.534;2023-11-21T00:39:23;21.52;;;19.25;;
40252;SDS011;25972;51.854;4.534;2023-11-21T00:41:49;27.85;;;20.38;;
40252;SDS011;25972;51.854;4.534;2023-11-21T00:44:17;22.50;;;19.33;;
40252;SDS011;25972;51.854;4.534;2023-11-21T00:46:43;28.35;;;20.77;;
40252;SDS011;25972;51.854;4.534;2023-11-21T00:49:09;24.77;;;20.10;;
40252;SDS011;25972;51.854;4.534;2023-11-21T00:51:36;22.13;;;19.92;;
40252;SDS011;25972;51.854;4.534;2023-11-21T00:54:04;22.13;;;19.70;;
40252;SDS011;25972;51.854;4.534;2023-11-21T00:56:33;24.40;;;19.70;;
40252;SDS011;25972;51.854;4.534;2023-11-21T00:59:00;25.25;;;20.15;;
40252;SDS011;25972;51.854;4.534;2023-11-21T01:01:26;21.92;;;19.55;;
40252;SDS011;25972;51.854;4.534;2023-11-21T01:03:52;28.05;;;20.05;;
40252;SDS011;25972;51.854;4.534;2023-11-21T01:06:19;22.48;;;19.65;;
40252;SDS011;25972;51.854;4.534;2023-11-21T01:08:47;26.33;;;19.77;;
40252;SDS011;25972;51.854;4.534;2023-11-21T01:11:14;22.55;;;19.83;;
40252;SDS011;25972;51.854;4.534;2023-11-21T01:13:43;25.30;;;19.30;;
40252;SDS011;25972;51.854;4.534;2023-11-21T01:16:11;22.75;;;20.35;;
40252;SDS011;25972;51.854;4.534;2023-11-21T01:18:37;23.40;;;19.63;;
40252;SDS011;25972;51.854;4.534;2023-11-21T01:21:03;21.85;;;19.13;;
40252;SDS011;25972;51.854;4.534;2023-11-21T01:23:31;21.40;;;19.05;;
40252;SDS011;25972;51.854;4.534;2023-11-21T01:25:58;21.50;;;18.45;;
40252;SDS011;25972;51.854;4.534;2023-11-21T01:28:24;20.05;;;18.15;;
40252;SDS011;25972;51.854;4.534;2023-11-21T01:30:53;20.45;;;18.38;;
40252;SDS011;25972;51.854;4.534;2023-11-21T01:33:21;22.60;;;18.38;;
40252;SDS011;25972;51.854;4.534;2023-11-21T01:35:51;21.05;;;19.10;;
40252;SDS011;25972;51.854;4.534;2023-11-21T01:38:22;26.27;;;18.85;;
40252;SDS011;25972;51.854;4.534;2023-11-21T01:40:48;21.10;;;18.85;;
40252;SDS011;25972;51.854;4.534;2023-11-21T01:43:14;22.30;;;18.88;;
40252;SDS011;25972;51.854;4.534;2023-11-21T01:45:41;20.70;;;18.63;;
40252;SDS011;25972;51.854;4.534;2023-11-21T01:48:09;21.15;;;19.00;;
40252;SDS011;25972;51.854;4.534;2023-11-21T01:50:35;23.77;;;18.65;;
40252;SDS011;25972;51.854;4.534;2023-11-21T01:53:02;24.40;;;19.15;;
40252;SDS011;25972;51.854;4.534;2023-11-21T01:55:29;22.52;;;18.60;;
40252;SDS011;25972;51.854;4.534;2023-11-21T01:57:55;21.83;;;19.45;;
40252;SDS011;25972;51.854;4.534;2023-11-21T02:00:24;20.52;;;18.50;;
40252;SDS011;25972;51.854;4.534;2023-11-21T02:02:54;21.77;;;18.13;;
40252;SDS011;25972;51.854;4.534;2023-11-21T02:05:23;22.30;;;18.30;;
40252;SDS011;25972;51.854;4.534;2023-11-21T02:07:50;22.05;;;18.08;;
40252;SDS011;25972;51.854;4.534;2023-11-21T02:10:17;23.85;;;18.20;;
40252;SDS011;25972;51.854;4.534;2023-11-21T02:12:48;20.42;;;18.38;;
40252;SDS011;25972;51.854;4.534;2023-11-21T02:15:15;22.75;;;18.67;;
40252;SDS011;25972;51.854;4.534;2023-11-21T02:17:45;20.67;;;18.75;;
40252;SDS011;25972;51.854;4.534;2023-11-21T02:20:16;22.63;;;18.55;;
40252;SDS011;25972;51.854;4.534;2023-11-21T02:25:23;19.42;;;17.52;;
40252;SDS011;25972;51.854;4.534;2023-11-21T02:27:50;21.88;;;18.67;;
40252;SDS011;25972;51.854;4.534;2023-11-21T02:30:16;20.88;;;18.55;;
40252;SDS011;25972;51.854;4.534;2023-11-21T02:32:44;20.10;;;18.17;;
40252;SDS011;25972;51.854;4.534;2023-11-21T02:35:10;20.58;;;18.40;;
40252;SDS011;25972;51.854;4.534;2023-11-21T02:37:37;20.85;;;18.73;;
40252;SDS011;25972;51.854;4.534;2023-11-21T02:40:07;22.63;;;19.70;;
40252;SDS011;25972;51.854;4.534;2023-11-21T02:42:35;21.00;;;18.67;;
40252;SDS011;25972;51.854;4.534;2023-11-21T02:45:01;20.33;;;18.27;;
40252;SDS011;25972;51.854;4.534;2023-11-21T02:47:27;19.88;;;18.08;;
40252;SDS011;25972;51.854;4.534;2023-11-21T02:49:54;21.27;;;19.13;;
40252;SDS011;25972;51.854;4.534;2023-11-21T02:52:20;19.77;;;17.90;;
40252;SDS011;25972;51.854;4.534;2023-11-21T02:54:46;20.92;;;18.83;;
40252;SDS011;25972;51.854;4.534;2023-11-21T02:57:13;21.27;;;19.05;;
40252;SDS011;25972;51.854;4.534;2023-11-21T02:59:39;21.35;;;19.48;;
40252;SDS011;25972;51.854;4.534;2023-11-21T03:02:05;20.90;;;18.80;;
40252;SDS011;25972;51.854;4.534;2023-11-21T03:04:33;21.40;;;19.13;;
40252;SDS011;25972;51.854;4.534;2023-11-21T03:07:01;20.92;;;18.88;;
40252;SDS011;25972;51.854;4.534;2023-11-21T03:09:27;20.85;;;18.70;;
40252;SDS011;25972;51.854;4.534;2023-11-21T03:11:53;20.92;;;18.92;;
40252;SDS011;25972;51.854;4.534;2023-11-21T03:14:22;21.20;;;18.67;;
40252;SDS011;25972;51.854;4.534;2023-11-21T03:16:48;21.65;;;18.88;;
40252;SDS011;25972;51.854;4.534;2023-11-21T03:19:14;20.50;;;18.35;;
40252;SDS011;25972;51.854;4.534;2023-11-21T03:21:40;20.15;;;18.25;;
40252;SDS011;25972;51.854;4.534;2023-11-21T03:24:07;20.40;;;18.60;;
40252;SDS011;25972;51.854;4.534;2023-11-21T03:26:33;19.88;;;17.83;;
40252;SDS011;25972;51.854;4.534;2023-11-21T03:28:59;20.00;;;18.10;;
40252;SDS011;25972;51.854;4.534;2023-11-21T03:31:26;29.98;;;18.63;;
40252;SDS011;25972;51.854;4.534;2023-11-21T03:33:52;20.48;;;18.58;;
40252;SDS011;25972;51.854;4.534;2023-11-21T03:36:19;22.55;;;18.92;;
40252;SDS011;25972;51.854;4.534;2023-11-21T03:38:47;22.55;;;18.88;;
40252;SDS011;25972;51.854;4.534;2023-11-21T03:41:14;20.88;;;18.90;;
40252;SDS011;25972;51.854;4.534;2023-11-21T03:43:40;21.33;;;19.17;;
40252;SDS011;25972;51.854;4.534;2023-11-21T03:46:06;21.90;;;19.92;;
40252;SDS011;25972;51.854;4.534;2023-11-21T03:48:34;20.80;;;18.98;;
40252;SDS011;25972;51.854;4.534;2023-11-21T03:51:00;21.27;;;19.25;;
40252;SDS011;25972;51.854;4.534;2023-11-21T03:53:26;20.63;;;18.75;;
40252;SDS011;25972;51.854;4.534;2023-11-21T03:55:53;21.20;;;18.92;;
40252;SDS011;25972;51.854;4.534;2023-11-21T03:58:19;21.92;;;19.70;;
40252;SDS011;25972;51.854;4.534;2023-11-21T04:00:46;20.73;;;18.60;;
40252;SDS011;25972;51.854;4.534;2023-11-21T04:03:14;20.83;;;18.92;;
40252;SDS011;25972;51.854;4.534;2023-11-21T04:05:42;21.98;;;19.83;;
40252;SDS011;25972;51.854;4.534;2023-11-21T04:08:10;21.35;;;19.40;;
40252;SDS011;25972;51.854;4.534;2023-11-21T04:10:36;20.92;;;19.15;;
40252;SDS011;25972;51.854;4.534;2023-11-21T04:13:02;21.50;;;19.45;;
40252;SDS011;25972;51.854;4.534;2023-11-21T04:15:28;21.65;;;19.70;;
40252;SDS011;25972;51.854;4.534;2023-11-21T04:17:54;20.92;;;19.15;;
40252;SDS011;25972;51.854;4.534;2023-11-21T04:20:22;20.63;;;18.88;;
40252;SDS011;25972;51.854;4.534;2023-11-21T04:22:50;21.63;;;19.45;;
40252;SDS011;25972;51.854;4.534;2023-11-21T04:25:16;21.13;;;19.23;;
40252;SDS011;25972;51.854;4.534;2023-11-21T04:27:43;20.75;;;18.92;;
40252;SDS011;25972;51.854;4.534;2023-11-21T04:30:10;20.17;;;18.48;;
40252;SDS011;25972;51.854;4.534;2023-11-21T04:32:37;20.65;;;18.80;;
40252;SDS011;25972;51.854;4.534;2023-11-21T04:35:04;21.13;;;19.00;;
40252;SDS011;25972;51.854;4.534;2023-11-21T04:37:31;21.30;;;19.27;;
40252;SDS011;25972;51.854;4.534;2023-11-21T04:39:58;21.52;;;19.25;;
40252;SDS011;25972;51.854;4.534;2023-11-21T04:42:25;19.92;;;18.23;;
40252;SDS011;25972;51.854;4.534;2023-11-21T04:44:51;20.45;;;18.60;;
40252;SDS011;25972;51.854;4.534;2023-11-21T04:47:17;20.65;;;18.60;;
40252;SDS011;25972;51.854;4.534;2023-11-21T04:49:45;19.88;;;18.23;;
40252;SDS011;25972;51.854;4.534;2023-11-21T04:52:14;20.55;;;18.50;;
40252;SDS011;25972;51.854;4.534;2023-11-21T04:54:40;19.42;;;17.77;;
40252;SDS011;25972;51.854;4.534;2023-11-21T04:57:09;20.95;;;18.85;;
40252;SDS011;25972;51.854;4.534;2023-11-21T04:59:36;20.13;;;18.45;;
40252;SDS011;25972;51.854;4.534;2023-11-21T05:02:02;19.92;;;18.17;;
40252;SDS011;25972;51.854;4.534;2023-11-21T05:04:30;20.73;;;18.58;;
40252;SDS011;25972;51.854;4.534;2023-11-21T05:06:56;20.35;;;18.63;;
40252;SDS011;25972;51.854;4.534;2023-11-21T05:09:22;20.88;;;18.92;;
40252;SDS011;25972;51.854;4.534;2023-11-21T05:11:48;19.90;;;18.27;;
40252;SDS011;25972;51.854;4.534;2023-11-21T05:14:16;20.75;;;18.67;;
40252;SDS011;25972;51.854;4.534;2023-11-21T05:16:43;20.65;;;18.77;;
40252;SDS011;25972;51.854;4.534;2023-11-21T05:19:09;19.73;;;17.90;;
40252;SDS011;25972;51.854;4.534;2023-11-21T05:21:38;19.65;;;18.05;;
40252;SDS011;25972;51.854;4.534;2023-11-21T05:24:04;20.10;;;18.20;;
40252;SDS011;25972;51.854;4.534;2023-11-21T05:26:30;19.98;;;18.38;;
40252;SDS011;25972;51.854;4.534;2023-11-21T05:28:56;20.05;;;18.25;;
40252;SDS011;25972;51.854;4.534;2023-11-21T05:31:24;20.58;;;18.55;;
40252;SDS011;25972;51.854;4.534;2023-11-21T05:33:50;20.20;;;18.50;;
40252;SDS011;25972;51.854;4.534;2023-11-21T05:36:16;20.35;;;18.25;;
40252;SDS011;25972;51.854;4.534;2023-11-21T05:38:42;20.20;;;18.30;;
40252;SDS011;25972;51.854;4.534;2023-11-21T05:41:08;20.73;;;18.70;;
40252;SDS011;25972;51.854;4.534;2023-11-21T05:43:36;20.00;;;18.20;;
40252;SDS011;25972;51.854;4.534;2023-11-21T05:46:02;21.25;;;17.80;;
40252;SDS011;25972;51.854;4.534;2023-11-21T05:48:30;19.58;;;17.88;;
40252;SDS011;25972;51.854;4.534;2023-11-21T05:50:56;19.10;;;17.33;;
40252;SDS011;25972;51.854;4.534;2023-11-21T05:53:24;20.05;;;18.15;;
40252;SDS011;25972;51.854;4.534;2023-11-21T05:55:50;20.17;;;18.17;;
40252;SDS011;25972;51.854;4.534;2023-11-21T05:58:16;20.77;;;18.98;;
40252;SDS011;25972;51.854;4.534;2023-11-21T06:00:42;19.85;;;17.73;;
40252;SDS011;25972;51.854;4.534;2023-11-21T06:03:08;19.83;;;17.98;;
40252;SDS011;25972;51.854;4.534;2023-11-21T06:05:36;20.42;;;18.67;;
40252;SDS011;25972;51.854;4.534;2023-11-21T06:08:02;19.70;;;18.00;;
40252;SDS011;25972;51.854;4.534;2023-11-21T06:10:28;19.13;;;17.52;;
40252;SDS011;25972;51.854;4.534;2023-11-21T06:12:54;20.35;;;18.42;;
40252;SDS011;25972;51.854;4.534;2023-11-21T06:15:20;20.55;;;18.58;;
40252;SDS011;25972;51.854;4.534;2023-11-21T06:17:48;20.17;;;18.35;;
40252;SDS011;25972;51.854;4.534;2023-11-21T06:20:20;19.77;;;17.67;;
40252;SDS011;25972;51.854;4.534;2023-11-21T06:22:49;19.80;;;18.13;;
40252;SDS011;25972;51.854;4.534;2023-11-21T06:25:15;19.90;;;18.20;;
40252;SDS011;25972;51.854;4.534;2023-11-21T06:27:43;20.23;;;18.20;;
40252;SDS011;25972;51.854;4.534;2023-11-21T06:30:10;20.10;;;18.08;;
40252;SDS011;25972;51.854;4.534;2023-11-21T06:32:37;19.60;;;17.33;;
40252;SDS011;25972;51.854;4.534;2023-11-21T06:35:03;18.30;;;16.60;;
40252;SDS011;25972;51.854;4.534;2023-11-21T06:37:30;18.80;;;17.08;;
40252;SDS011;25972;51.854;4.534;2023-11-21T06:39:59;19.35;;;17.30;;
40252;SDS011;25972;51.854;4.534;2023-11-21T06:42:25;20.50;;;18.33;;
40252;SDS011;25972;51.854;4.534;2023-11-21T06:44:52;19.85;;;18.08;;
40252;SDS011;25972;51.854;4.534;2023-11-21T06:47:19;19.83;;;18.05;;
40252;SDS011;25972;51.854;4.534;2023-11-21T06:49:50;21.17;;;19.02;;
40252;SDS011;25972;51.854;4.534;2023-11-21T06:52:16;21.58;;;18.95;;
40252;SDS011;25972;51.854;4.534;2023-11-21T06:54:42;20.70;;;18.50;;
40252;SDS011;25972;51.854;4.534;2023-11-21T06:57:12;25.67;;;19.55;;
40252;SDS011;25972;51.854;4.534;2023-11-21T06:59:42;21.92;;;18.85;;
40252;SDS011;25972;51.854;4.534;2023-11-21T07:02:08;19.95;;;18.05;;
40252;SDS011;25972;51.854;4.534;2023-11-21T07:04:34;19.70;;;17.60;;
40252;SDS011;25972;51.854;4.534;2023-11-21T07:07:01;20.45;;;18.45;;
40252;SDS011;25972;51.854;4.534;2023-11-21T07:09:28;20.48;;;18.58;;
40252;SDS011;25972;51.854;4.534;2023-11-21T07:11:54;19.83;;;17.92;;
40252;SDS011;25972;51.854;4.534;2023-11-21T07:14:22;20.15;;;18.45;;
40252;SDS011;25972;51.854;4.534;2023-11-21T07:16:48;20.42;;;18.42;;
40252;SDS011;25972;51.854;4.534;2023-11-21T07:19:14;20.58;;;18.30;;
40252;SDS011;25972;51.854;4.534;2023-11-21T07:21:40;19.65;;;17.90;;
40252;SDS011;25972;51.854;4.534;2023-11-21T07:24:06;20.67;;;18.63;;
40252;SDS011;25972;51.854;4.534;2023-11-21T07:26:33;19.92;;;18.05;;
40252;SDS011;25972;51.854;4.534;2023-11-21T07:29:00;18.83;;;17.10;;
40252;SDS011;25972;51.854;4.534;2023-11-21T07:31:27;18.60;;;17.15;;
40252;SDS011;25972;51.854;4.534;2023-11-21T07:33:54;19.00;;;17.13;;
40252;SDS011;25972;51.854;4.534;2023-11-21T07:36:23;19.45;;;17.65;;
40252;SDS011;25972;51.854;4.534;2023-11-21T07:38:49;19.10;;;17.42;;
40252;SDS011;25972;51.854;4.534;2023-11-21T07:41:15;19.25;;;17.25;;
40252;SDS011;25972;51.854;4.534;2023-11-21T07:43:43;18.70;;;17.15;;
40252;SDS011;25972;51.854;4.534;2023-11-21T07:46:10;18.33;;;16.83;;
40252;SDS011;25972;51.854;4.534;2023-11-21T07:48:39;19.13;;;17.33;;
40252;SDS011;25972;51.854;4.534;2023-11-21T07:51:07;19.27;;;17.15;;
40252;SDS011;25972;51.854;4.534;2023-11-21T07:53:33;18.95;;;17.30;;
40252;SDS011;25972;51.854;4.534;2023-11-21T07:56:02;18.95;;;17.35;;
40252;SDS011;25972;51.854;4.534;2023-11-21T07:58:30;18.45;;;16.67;;
40252;SDS011;25972;51.854;4.534;2023-11-21T08:00:58;21.55;;;17.27;;
40252;SDS011;25972;51.854;4.534;2023-11-21T08:03:25;18.45;;;16.73;;
40252;SDS011;25972;51.854;4.534;2023-11-21T08:05:57;22.00;;;17.55;;
40252;SDS011;25972;51.854;4.534;2023-11-21T08:08:23;19.60;;;17.40;;
40252;SDS011;25972;51.854;4.534;2023-11-21T08:10:52;19.40;;;17.45;;
40252;SDS011;25972;51.854;4.534;2023-11-21T08:13:21;19.00;;;17.45;;
40252;SDS011;25972;51.854;4.534;2023-11-21T08:15:49;18.73;;;17.17;;
40252;SDS011;25972;51.854;4.534;2023-11-21T08:18:15;19.65;;;17.95;;
40252;SDS011;25972;51.854;4.534;2023-11-21T08:20:42;19.02;;;17.45;;
40252;SDS011;25972;51.854;4.534;2023-11-21T08:23:11;19.17;;;17.42;;
40252;SDS011;25972;51.854;4.534;2023-11-21T08:25:37;18.60;;;16.88;;
40252;SDS011;25972;51.854;4.534;2023-11-21T08:28:04;19.10;;;17.50;;
40252;SDS011;25972;51.854;4.534;2023-11-21T08:30:30;19.45;;;17.42;;
40252;SDS011;25972;51.854;4.534;2023-11-21T08:32:57;18.80;;;17.00;;
40252;SDS011;25972;51.854;4.534;2023-11-21T08:35:23;19.20;;;17.48;;
40252;SDS011;25972;51.854;4.534;2023-11-21T08:37:50;19.70;;;18.00;;
40252;SDS011;25972;51.854;4.534;2023-11-21T08:40:19;19.70;;;17.90;;
40252;SDS011;25972;51.854;4.534;2023-11-21T08:42:46;19.60;;;17.67;;
40252;SDS011;25972;51.854;4.534;2023-11-21T08:45:13;19.05;;;17.58;;
40252;SDS011;25972;51.854;4.534;2023-11-21T08:47:39;19.80;;;17.88;;
40252;SDS011;25972;51.854;4.534;2023-11-21T08:50:06;19.42;;;17.83;;
40252;SDS011;25972;51.854;4.534;2023-11-21T08:52:33;19.50;;;17.77;;
40252;SDS011;25972;51.854;4.534;2023-11-21T08:54:59;18.83;;;17.42;;
40252;SDS011;25972;51.854;4.534;2023-11-21T08:57:30;18.13;;;16.70;;
40252;SDS011;25972;51.854;4.534;2023-11-21T08:59:56;19.70;;;17.80;;
40252;SDS011;25972;51.854;4.534;2023-11-21T09:02:22;19.40;;;17.48;;
40252;SDS011;25972;51.854;4.534;2023-11-21T09:04:48;19.63;;;17.73;;
40252;SDS011;25972;51.854;4.534;2023-11-21T09:07:16;16.75;;;15.55;;
40252;SDS011;25972;51.854;4.534;2023-11-21T09:09:41;19.27;;;17.27;;
40252;SDS011;25972;51.854;4.534;2023-11-21T09:12:08;18.25;;;16.60;;
40252;SDS011;25972;51.854;4.534;2023-11-21T09:14:37;19.30;;;17.50;;
40252;SDS011;25972;51.854;4.534;2023-11-21T09:17:04;20.48;;;17.77;;
40252;SDS011;25972;51.854;4.534;2023-11-21T09:19:36;19.42;;;17.48;;
40252;SDS011;25972;51.854;4.534;2023-11-21T09:22:02;19.63;;;17.95;;
40252;SDS011;25972;51.854;4.534;2023-11-21T09:24:31;19.05;;;17.25;;
40252;SDS011;25972;51.854;4.534;2023-11-21T09:26:57;20.75;;;17.38;;
40252;SDS011;25972;51.854;4.534;2023-11-21T09:29:25;17.90;;;16.25;;
40252;SDS011;25972;51.854;4.534;2023-11-21T09:31:52;18.27;;;16.45;;
40252;SDS011;25972;51.854;4.534;2023-11-21T09:34:20;18.35;;;16.52;;
40252;SDS011;25972;51.854;4.534;2023-11-21T09:36:46;17.85;;;16.08;;
40252;SDS011;25972;51.854;4.534;2023-11-21T09:39:12;17.50;;;15.95;;
40252;SDS011;25972;51.854;4.534;2023-11-21T09:41:40;17.25;;;15.57;;
40252;SDS011;25972;51.854;4.534;2023-11-21T09:44:11;17.38;;;15.77;;
40252;SDS011;25972;51.854;4.534;2023-11-21T09:46:42;17.70;;;15.95;;
40252;SDS011;25972;51.854;4.534;2023-11-21T09:49:11;17.42;;;15.77;;
40252;SDS011;25972;51.854;4.534;2023-11-21T09:51:38;17.38;;;15.68;;
40252;SDS011;25972;51.854;4.534;2023-11-21T09:54:06;17.08;;;15.60;;
40252;SDS011;25972;51.854;4.534;2023-11-21T09:56:35;16.45;;;15.05;;
40252;SDS011;25972;51.854;4.534;2023-11-21T09:59:02;17.70;;;16.02;;
40252;SDS011;25972;51.854;4.534;2023-11-21T10:01:32;17.00;;;15.32;;
40252;SDS011;25972;51.854;4.534;2023-11-21T10:03:58;19.02;;;15.75;;
40252;SDS011;25972;51.854;4.534;2023-11-21T10:06:27;16.95;;;15.55;;
40252;SDS011;25972;51.854;4.534;2023-11-21T10:08:55;17.27;;;15.63;;
40252;SDS011;25972;51.854;4.534;2023-11-21T10:11:24;17.02;;;15.57;;
40252;SDS011;25972;51.854;4.534;2023-11-21T10:13:51;17.48;;;15.88;;
40252;SDS011;25972;51.854;4.534;2023-11-21T10:16:23;17.10;;;15.63;;
40252;SDS011;25972;51.854;4.534;2023-11-21T10:18:51;15.40;;;14.20;;
40252;SDS011;25972;51.854;4.534;2023-11-21T10:21:20;17.67;;;15.82;;
40252;SDS011;25972;51.854;4.534;2023-11-21T10:23:48;16.13;;;14.82;;
40252;SDS011;25972;51.854;4.534;2023-11-21T10:26:15;15.27;;;14.15;;
40252;SDS011;25972;51.854;4.534;2023-11-21T10:28:46;16.95;;;15.45;;
40252;SDS011;25972;51.854;4.534;2023-11-21T10:31:21;17.00;;;15.52;;
40252;SDS011;25972;51.854;4.534;2023-11-21T10:33:49;15.95;;;14.65;;
40252;SDS011;25972;51.854;4.534;2023-11-21T10:36:20;16.35;;;14.95;;
40252;SDS011;25972;51.854;4.534;2023-11-21T10:38:52;16.90;;;15.27;;
40252;SDS011;25972;51.854;4.534;2023-11-21T10:41:19;15.82;;;14.55;;
40252;SDS011;25972;51.854;4.534;2023-11-21T10:43:45;15.18;;;13.98;;
40252;SDS011;25972;51.854;4.534;2023-11-21T10:46:11;17.33;;;15.77;;
40252;SDS011;25972;51.854;4.534;2023-11-21T10:48:40;18.00;;;16.25;;
40252;SDS011;25972;51.854;4.534;2023-11-21T10:51:08;16.45;;;15.00;;
40252;SDS011;25972;51.854;4.534;2023-11-21T10:53:38;17.25;;;15.68;;
40252;SDS011;25972;51.854;4.534;2023-11-21T10:56:08;17.20;;;15.55;;
40252;SDS011;25972;51.854;4.534;2023-11-21T10:58:37;15.82;;;14.65;;
40252;SDS011;25972;51.854;4.534;2023-11-21T11:01:05;16.02;;;14.82;;
40252;SDS011;25972;51.854;4.534;2023-11-21T11:03:32;17.48;;;16.05;;
40252;SDS011;25972;51.854;4.534;2023-11-21T11:06:01;18.25;;;16.65;;
40252;SDS011;25972;51.854;4.534;2023-11-21T11:08:28;17.13;;;15.50;;
40252;SDS011;25972;51.854;4.534;2023-11-21T11:10:54;16.88;;;15.35;;
40252;SDS011;25972;51.854;4.534;2023-11-21T11:13:22;17.88;;;16.20;;
40252;SDS011;25972;51.854;4.534;2023-11-21T11:15:49;17.92;;;16.15;;
40252;SDS011;25972;51.854;4.534;2023-11-21T11:18:16;18.10;;;16.35;;
40252;SDS011;25972;51.854;4.534;2023-11-21T11:20:42;17.63;;;16.02;;
40252;SDS011;25972;51.854;4.534;2023-11-21T11:23:13;17.15;;;15.73;;
40252;SDS011;25972;51.854;4.534;2023-11-21T11:25:58;17.63;;;15.73;;
40252;SDS011;25972;51.854;4.534;2023-11-21T11:28:38;18.02;;;16.17;;
40252;SDS011;25972;51.854;4.534;2023-11-21T11:31:13;18.95;;;17.35;;
40252;SDS011;25972;51.854;4.534;2023-11-21T11:33:51;17.52;;;16.08;;
40252;SDS011;25972;51.854;4.534;2023-11-21T11:36:24;17.60;;;16.08;;
40252;SDS011;25972;51.854;4.534;2023-11-21T11:38:54;17.75;;;16.25;;
40252;SDS011;25972;51.854;4.534;2023-11-21T11:41:24;18.55;;;16.65;;
40252;SDS011;25972;51.854;4.534;2023-11-21T11:43:57;17.23;;;15.60;;
40252;SDS011;25972;51.854;4.534;2023-11-21T11:49:06;17.65;;;16.05;;
40252;SDS011;25972;51.854;4.534;2023-11-21T11:51:33;17.70;;;16.20;;
40252;SDS011;25972;51.854;4.534;2023-11-21T11:54:01;17.05;;;15.57;;
40252;SDS011;25972;51.854;4.534;2023-11-21T11:56:27;18.92;;;16.80;;
40252;SDS011;25972;51.854;4.534;2023-11-21T11:58:57;17.05;;;15.48;;
40252;SDS011;25972;51.854;4.534;2023-11-21T12:01:24;17.55;;;16.08;;
40252;SDS011;25972;51.854;4.534;2023-11-21T12:06:50;18.17;;;16.48;;
40252;SDS011;25972;51.854;4.534;2023-11-21T12:09:22;19.23;;;17.30;;
40252;SDS011;25972;51.854;4.534;2023-11-21T12:11:49;19.33;;;17.33;;
40252;SDS011;25972;51.854;4.534;2023-11-21T12:14:17;18.95;;;17.23;;
40252;SDS011;25972;51.854;4.534;2023-11-21T12:16:43;17.85;;;16.25;;
40252;SDS011;25972;51.854;4.534;2023-11-21T12:19:10;19.27;;;17.35;;
40252;SDS011;25972;51.854;4.534;2023-11-21T12:21:37;18.63;;;16.80;;
40252;SDS011;25972;51.854;4.534;2023-11-21T12:24:06;20.33;;;18.15;;
40252;SDS011;25972;51.854;4.534;2023-11-21T12:26:38;18.60;;;16.95;;
40252;SDS011;25972;51.854;4.534;2023-11-21T12:29:05;17.92;;;16.42;;
40252;SDS011;25972;51.854;4.534;2023-11-21T12:31:34;18.42;;;16.63;;
40252;SDS011;25972;51.854;4.534;2023-11-21T12:34:01;18.27;;;16.67;;
40252;SDS011;25972;51.854;4.534;2023-11-21T12:36:27;19.58;;;17.63;;
40252;SDS011;25972;51.854;4.534;2023-11-21T12:38:55;19.40;;;17.50;;
40252;SDS011;25972;51.854;4.534;2023-11-21T12:41:21;18.85;;;17.05;;
40252;SDS011;25972;51.854;4.534;2023-11-21T12:43:48;19.08;;;17.17;;
40252;SDS011;25972;51.854;4.534;2023-11-21T12:46:14;19.40;;;17.48;;
40252;SDS011;25972;51.854;4.534;2023-11-21T12:48:43;19.90;;;17.90;;
40252;SDS011;25972;51.854;4.534;2023-11-21T12:51:11;18.42;;;16.73;;
40252;SDS011;25972;51.854;4.534;2023-11-21T12:53:39;18.35;;;16.67;;
40252;SDS011;25972;51.854;4.534;2023-11-21T12:56:06;19.75;;;17.73;;
40252;SDS011;25972;51.854;4.534;2023-11-21T12:58:34;19.50;;;17.58;;
40252;SDS011;25972;51.854;4.534;2023-11-21T13:01:01;19.80;;;17.70;;
40252;SDS011;25972;51.854;4.534;2023-11-21T13:03:29;19.27;;;17.38;;
40252;SDS011;25972;51.854;4.534;2023-11-21T13:05:57;18.60;;;16.85;;
40252;SDS011;25972;51.854;4.534;2023-11-21T13:08:24;18.83;;;17.00;;
40252;SDS011;25972;51.854;4.534;2023-11-21T13:10:52;16.92;;;15.55;;
40252;SDS011;25972;51.854;4.534;2023-11-21T13:13:20;16.67;;;15.45;;
40252;SDS011;25972;51.854;4.534;2023-11-21T13:15:50;16.45;;;15.18;;
40252;SDS011;25972;51.854;4.534;2023-11-21T13:18:18;17.73;;;16.20;;
40252;SDS011;25972;51.854;4.534;2023-11-21T13:20:44;18.33;;;16.63;;
40252;SDS011;25972;51.854;4.534;2023-11-21T13:23:12;19.63;;;17.58;;
40252;SDS011;25972;51.854;4.534;2023-11-21T13:25:39;18.15;;;16.42;;
40252;SDS011;25972;51.854;4.534;2023-11-21T13:28:08;17.98;;;16.38;;
40252;SDS011;25972;51.854;4.534;2023-11-21T13:30:37;19.13;;;17.38;;
40252;SDS011;25972;51.854;4.534;2023-11-21T13:33:05;19.05;;;17.23;;
40252;SDS011;25972;51.854;4.534;2023-11-21T13:35:33;20.45;;;17.67;;
40252;SDS011;25972;51.854;4.534;2023-11-21T13:38:06;17.40;;;16.10;;
40252;SDS011;25972;51.854;4.534;2023-11-21T13:40:36;18.60;;;17.00;;
40252;SDS011;25972;51.854;4.534;2023-11-21T13:43:08;18.27;;;16.75;;
40252;SDS011;25972;51.854;4.534;2023-11-21T13:45:38;18.55;;;16.75;;
40252;SDS011;25972;51.854;4.534;2023-11-21T13:48:05;17.48;;;15.90;;
40252;SDS011;25972;51.854;4.534;2023-11-21T13:50:35;17.67;;;16.10;;
40252;SDS011;25972;51.854;4.534;2023-11-21T13:53:01;18.92;;;17.05;;
40252;SDS011;25972;51.854;4.534;2023-11-21T13:55:45;18.45;;;16.83;;
40252;SDS011;25972;51.854;4.534;2023-11-21T13:58:11;18.60;;;16.90;;
40252;SDS011;25972;51.854;4.534;2023-11-21T14:00:43;19.87;;;17.97;;
40252;SDS011;25972;51.854;4.534;2023-11-21T14:03:17;18.48;;;16.90;;
40252;SDS011;25972;51.854;4.534;2023-11-21T14:05:47;18.27;;;16.77;;
40252;SDS011;25972;51.854;4.534;2023-11-21T14:08:16;17.77;;;16.27;;
40252;SDS011;25972;51.854;4.534;2023-11-21T14:10:47;16.75;;;15.45;;
40252;SDS011;25972;51.854;4.534;2023-11-21T14:13:20;18.88;;;17.10;;
40252;SDS011;25972;51.854;4.534;2023-11-21T14:15:48;19.35;;;17.55;;
40252;SDS011;25972;51.854;4.534;2023-11-21T14:18:17;19.75;;;17.90;;
40252;SDS011;25972;51.854;4.534;2023-11-21T14:20:51;18.45;;;16.75;;
40252;SDS011;25972;51.854;4.534;2023-11-21T14:23:17;17.15;;;15.68;;
40252;SDS011;25972;51.854;4.534;2023-11-21T14:25:43;18.23;;;16.58;;
40252;SDS011;25972;51.854;4.534;2023-11-21T14:28:11;20.38;;;18.27;;
40252;SDS011;25972;51.854;4.534;2023-11-21T14:30:37;18.67;;;17.00;;